Terminal Aerodrome Forecast
Issued by NWS

Home | Current Version | Previous Version | Text Only | Print | Product List | Glossary On
Versions: 1 2 3 4 5 6 7 8 9 10 11 12
450
FTUS46 KLOX 061734
TAFOXR
TAF
KOXR 061734Z 0618/0718 08011G16KT P6SM SKC
     FM062300 29008KT P6SM SKC
     FM070400 VRB03KT P6SM SKC
     FM071000 06008KT P6SM SKC
     FM071600 08012G17KT P6SM SKC=

USA.gov is the U.S. government's official web portal to all federal, state and local government web resources and services.